Time;durP1;ratioP1;P1;durP2;ratioP2;P2;SDS_P1;SDS_P2;PMS_P1;PMS_P2;Temp;Humidity;BMP_temperature;BMP_pressure;BME280_temperature;BME280_humidity;BME280_pressure;Samples;Min_cycle;Max_cycle;Signal;HPM_P1;HPM_P2
2024/02/04 00:03:29;;;;;;;24.27;21.75;;;11.30;99.90;;;;;;10412741;28;20266;-59
2024/02/04 00:08:33;;;;;;;23.25;20.67;;;11.30;99.90;;;;;;10426293;28;20246;-58
2024/02/04 00:13:38;;;;;;;19.48;17.50;;;11.40;99.90;;;;;;10422648;28;20208;-59
2024/02/04 00:18:42;;;;;;;19.80;17.23;;;11.30;99.90;;;;;;10417817;28;20195;-58
2024/02/04 00:23:45;;;;;;;18.30;16.40;;;11.30;99.90;;;;;;10412699;28;20200;-56
2024/02/04 00:28:50;;;;;;;19.60;17.25;;;11.30;99.90;;;;;;10414472;28;20763;-59
2024/02/04 00:33:54;;;;;;;18.05;16.23;;;11.30;99.90;;;;;;10411959;28;20775;-57
2024/02/04 00:38:58;;;;;;;16.90;15.10;;;11.30;99.90;;;;;;10414732;28;20200;-59
2024/02/04 00:44:03;;;;;;;16.88;15.15;;;11.20;99.90;;;;;;10413141;28;20321;-58
2024/02/04 00:49:07;;;;;;;15.38;13.85;;;11.20;99.90;;;;;;10421600;28;20791;-59
2024/02/04 00:54:11;;;;;;;14.48;12.98;;;11.20;99.90;;;;;;10415416;28;20224;-59
2024/02/04 00:59:16;;;;;;;12.15;11.05;;;11.20;99.90;;;;;;10416931;28;20732;-59
2024/02/04 01:04:20;;;;;;;10.35;9.35;;;11.20;99.90;;;;;;10414545;28;20228;-59
2024/02/04 01:09:24;;;;;;;9.93;8.93;;;11.20;99.90;;;;;;10414015;28;20260;-58
2024/02/04 01:14:29;;;;;;;8.52;7.68;;;11.10;99.90;;;;;;10410349;28;20672;-58
2024/02/04 01:19:32;;;;;;;9.05;8.15;;;11.10;99.90;;;;;;10407896;28;20204;-58
2024/02/04 01:24:36;;;;;;;8.13;6.60;;;11.10;99.90;;;;;;10407478;28;20243;-59
2024/02/04 01:29:41;;;;;;;7.07;6.38;;;11.10;99.90;;;;;;10409842;28;20742;-59
2024/02/04 01:34:45;;;;;;;5.85;5.35;;;11.10;99.90;;;;;;10415742;28;20636;-56
2024/02/04 01:39:49;;;;;;;6.35;5.13;;;11.10;99.90;;;;;;10420290;28;20204;-58
2024/02/04 01:44:53;;;;;;;6.35;5.78;;;11.10;99.90;;;;;;10415226;28;20278;-58
2024/02/04 01:49:57;;;;;;;6.55;5.95;;;11.10;99.90;;;;;;10411837;28;20278;-59
2024/02/04 01:55:04;;;;;;;6.82;6.20;;;11.10;99.90;;;;;;10424939;28;20272;-56
2024/02/04 02:00:12;;;;;;;7.03;6.32;;;11.10;99.90;;;;;;10410794;28;20678;-59
2024/02/04 02:05:16;;;;;;;8.63;5.95;;;11.10;99.90;;;;;;10414474;28;20220;-58
2024/02/04 02:10:20;;;;;;;7.00;6.40;;;11.10;99.90;;;;;;10412920;28;20320;-58
2024/02/04 02:15:29;;;;;;;7.32;6.32;;;11.10;99.90;;;;;;10420878;28;20605;-59
2024/02/04 02:20:42;;;;;;;7.78;7.00;;;11.10;99.90;;;;;;10412229;28;20258;-58
2024/02/04 02:25:47;;;;;;;9.80;7.18;;;11.10;99.90;;;;;;10412415;28;20269;-59
2024/02/04 02:30:51;;;;;;;8.80;7.97;;;11.10;99.90;;;;;;10403366;28;20885;-59
2024/02/04 02:35:58;;;;;;;10.48;9.48;;;11.10;99.90;;;;;;10408535;28;20247;-58
2024/02/04 02:41:08;;;;;;;10.50;9.50;;;11.10;99.90;;;;;;10408388;28;20250;-57
2024/02/04 02:46:11;;;;;;;12.98;11.57;;;11.10;99.90;;;;;;10407043;28;20224;-58
2024/02/04 02:51:15;;;;;;;14.30;12.90;;;11.10;99.90;;;;;;10410374;28;20680;-56
2024/02/04 02:56:20;;;;;;;19.38;15.18;;;11.10;99.90;;;;;;10414423;28;20227;-58
2024/02/04 03:01:25;;;;;;;18.15;16.25;;;11.10;99.90;;;;;;10407315;28;20276;-57
2024/02/04 03:06:29;;;;;;;20.63;17.88;;;11.20;99.90;;;;;;10412685;28;20270;-59
2024/02/04 03:11:36;;;;;;;19.88;17.75;;;11.10;99.90;;;;;;10417510;28;20310;-58
2024/02/04 03:16:40;;;;;;;21.95;17.45;;;11.20;99.90;;;;;;10420185;28;20236;-56
2024/02/04 03:21:43;;;;;;;25.88;18.15;;;11.20;99.90;;;;;;10418169;28;20570;-56
2024/02/04 03:26:48;;;;;;;21.38;17.65;;;11.20;99.90;;;;;;10412018;28;20298;-58
2024/02/04 03:31:51;;;;;;;22.33;16.92;;;11.20;99.90;;;;;;10418229;28;20247;-56
2024/02/04 03:36:55;;;;;;;21.90;16.65;;;11.20;99.90;;;;;;10413786;28;20240;-57
2024/02/04 03:42:00;;;;;;;21.75;17.60;;;11.20;99.90;;;;;;10423680;28;20273;-58
2024/02/04 03:47:04;;;;;;;24.80;17.77;;;11.20;99.90;;;;;;10417770;28;20601;-56
2024/02/04 03:52:07;;;;;;;23.40;19.15;;;11.20;99.90;;;;;;10411028;28;20212;-60
2024/02/04 03:57:12;;;;;;;28.52;21.65;;;11.20;99.90;;;;;;10414588;28;20701;-58
2024/02/04 04:02:17;;;;;;;25.05;22.00;;;11.20;99.90;;;;;;10409927;28;20233;-58
2024/02/04 04:07:21;;;;;;;25.83;21.10;;;11.30;99.90;;;;;;10421307;28;20703;-58
2024/02/04 04:12:26;;;;;;;24.25;19.95;;;11.30;99.90;;;;;;10422893;28;20258;-58
2024/02/04 04:17:29;;;;;;;23.67;19.98;;;11.30;99.90;;;;;;10415805;28;20282;-58
2024/02/04 04:22:33;;;;;;;26.55;20.23;;;11.20;99.90;;;;;;10421874;28;20204;-60
2024/02/04 04:27:38;;;;;;;21.88;17.33;;;11.20;99.90;;;;;;10422588;28;20333;-59
2024/02/04 04:32:42;;;;;;;19.35;16.90;;;11.30;99.90;;;;;;10414300;28;20208;-58
2024/02/04 04:37:45;;;;;;;21.42;17.60;;;11.30;99.90;;;;;;10410596;28;20828;-60
2024/02/04 04:42:51;;;;;;;20.20;17.30;;;11.30;99.90;;;;;;10415094;28;20223;-58
2024/02/04 04:47:54;;;;;;;22.13;17.83;;;11.20;99.90;;;;;;10412936;28;20761;-58
2024/02/04 04:52:58;;;;;;;22.27;19.23;;;11.20;99.90;;;;;;10421468;28;20258;-57
2024/02/04 04:58:03;;;;;;;25.58;19.35;;;11.20;99.90;;;;;;10430755;28;20215;-58
2024/02/04 05:03:07;;;;;;;21.95;18.73;;;11.20;99.90;;;;;;10421593;28;20196;-58
2024/02/04 05:08:10;;;;;;;24.48;19.50;;;11.20;99.90;;;;;;10404774;28;20244;-58
2024/02/04 05:13:15;;;;;;;23.70;18.98;;;11.20;99.90;;;;;;10416631;28;20200;-59
2024/02/04 05:18:19;;;;;;;22.05;18.60;;;11.20;99.90;;;;;;10420989;28;20236;-58
2024/02/04 05:23:23;;;;;;;21.48;18.48;;;11.20;99.90;;;;;;10421583;28;20274;-58
2024/02/04 05:28:28;;;;;;;20.42;17.10;;;11.30;99.90;;;;;;10417834;28;20262;-58
2024/02/04 05:33:31;;;;;;;19.77;17.48;;;11.30;99.90;;;;;;10410122;28;20201;-58
2024/02/04 05:38:35;;;;;;;21.65;17.20;;;11.30;99.90;;;;;;10412048;28;20875;-58
2024/02/04 05:43:41;;;;;;;21.45;17.77;;;11.30;99.90;;;;;;10415264;28;20212;-58
2024/02/04 05:48:45;;;;;;;22.80;19.05;;;11.30;99.90;;;;;;10413673;28;20722;-59
2024/02/04 05:53:49;;;;;;;23.73;18.73;;;11.30;99.90;;;;;;10415474;28;20245;-59
2024/02/04 05:58:54;;;;;;;21.88;17.17;;;11.30;99.90;;;;;;10419519;28;20890;-59
2024/02/04 06:03:57;;;;;;;20.42;16.33;;;11.30;99.90;;;;;;10413124;28;20270;-58
2024/02/04 06:09:01;;;;;;;18.80;16.35;;;11.30;99.90;;;;;;10407435;28;20691;-59
2024/02/04 06:14:06;;;;;;;19.42;16.15;;;11.30;99.90;;;;;;10409878;28;20228;-59
2024/02/04 06:19:12;;;;;;;20.15;16.02;;;11.30;99.90;;;;;;10413337;28;20196;-59
2024/02/04 06:24:16;;;;;;;19.20;15.98;;;11.30;99.90;;;;;;10411316;28;20216;-58
2024/02/04 06:29:21;;;;;;;19.83;17.13;;;11.30;99.90;;;;;;10408236;28;20274;-57
2024/02/04 06:34:25;;;;;;;22.15;17.65;;;11.30;99.90;;;;;;10407741;28;20757;-59
2024/02/04 06:39:29;;;;;;;23.00;18.48;;;11.30;99.90;;;;;;10409827;28;20196;-59
2024/02/04 06:44:34;;;;;;;29.80;20.33;;;11.30;99.90;;;;;;10410626;28;20212;-58
2024/02/04 06:49:38;;;;;;;30.25;21.75;;;11.30;99.90;;;;;;10415511;28;20264;-58
2024/02/04 06:54:41;;;;;;;26.90;21.33;;;11.20;99.90;;;;;;10410984;28;20382;-58
2024/02/04 06:59:46;;;;;;;29.88;21.30;;;11.20;99.90;;;;;;10409853;28;20258;-57
2024/02/04 07:04:50;;;;;;;24.33;20.63;;;11.20;99.90;;;;;;10413738;28;20242;-57
2024/02/04 07:09:58;;;;;;;28.27;20.92;;;11.20;99.90;;;;;;10408560;28;20234;-58
2024/02/04 07:15:03;;;;;;;29.35;20.40;;;11.20;99.90;;;;;;10411587;28;20232;-60
2024/02/04 07:20:08;;;;;;;24.48;19.65;;;11.20;99.90;;;;;;10411087;28;20250;-58
2024/02/04 07:25:11;;;;;;;28.25;19.27;;;11.20;99.90;;;;;;10406631;28;20228;-59
2024/02/04 07:30:17;;;;;;;24.13;18.77;;;11.20;99.90;;;;;;10409181;28;20262;-59
2024/02/04 07:35:21;;;;;;;24.00;18.50;;;11.20;99.90;;;;;;10412900;28;20271;-60
2024/02/04 07:40:25;;;;;;;23.27;16.58;;;11.30;99.90;;;;;;10410097;28;20843;-60
2024/02/04 07:45:30;;;;;;;21.02;16.45;;;11.30;99.90;;;;;;10411833;28;20224;-60
2024/02/04 07:50:33;;;;;;;20.20;15.75;;;11.30;99.90;;;;;;10410054;28;20212;-60
2024/02/04 07:55:37;;;;;;;19.90;15.05;;;11.30;99.90;;;;;;10415750;28;20227;-59
2024/02/04 08:00:42;;;;;;;21.55;17.50;;;11.30;99.90;;;;;;10413173;28;20437;-63
2024/02/04 08:05:46;;;;;;;19.63;14.13;;;11.30;99.90;;;;;;10409399;28;20238;-61
2024/02/04 08:10:49;;;;;;;16.98;13.45;;;11.40;99.90;;;;;;10414157;28;20212;-62
2024/02/04 08:15:54;;;;;;;15.55;13.50;;;11.40;99.90;;;;;;10411416;28;20235;-61
2024/02/04 08:20:58;;;;;;;15.32;12.25;;;11.40;99.90;;;;;;10409957;28;20209;-62
2024/02/04 08:26:02;;;;;;;11.88;10.60;;;11.40;99.90;;;;;;10419678;28;20270;-63
2024/02/04 08:31:07;;;;;;;14.48;10.75;;;11.40;99.90;;;;;;10408209;28;20220;-63
2024/02/04 08:36:10;;;;;;;11.95;9.95;;;11.40;99.90;;;;;;10407585;28;20735;-62
2024/02/04 08:41:14;;;;;;;9.27;8.05;;;11.40;99.90;;;;;;10416698;28;20282;-63
2024/02/04 08:46:19;;;;;;;7.90;7.03;;;11.40;99.90;;;;;;10412305;28;20259;-62
2024/02/04 08:51:23;;;;;;;7.05;6.13;;;11.40;99.90;;;;;;10413820;28;20243;-62
2024/02/04 08:56:26;;;;;;;8.57;7.28;;;11.40;99.90;;;;;;10443891;22;20787;-63
2024/02/04 09:01:31;;;;;;;9.82;7.60;;;11.40;99.90;;;;;;10452963;28;20658;-63
2024/02/04 09:06:35;;;;;;;10.73;7.72;;;11.50;99.90;;;;;;10439106;28;20228;-63
2024/02/04 09:11:39;;;;;;;8.50;7.03;;;11.50;99.90;;;;;;10432148;28;20231;-63
2024/02/04 09:16:44;;;;;;;6.23;4.77;;;11.50;99.90;;;;;;10438912;28;20223;-62
2024/02/04 09:21:47;;;;;;;5.47;4.55;;;11.50;99.90;;;;;;10444316;28;20894;-63
2024/02/04 09:26:51;;;;;;;5.57;3.83;;;11.40;99.90;;;;;;10440016;28;20229;-63
2024/02/04 09:31:56;;;;;;;5.40;4.90;;;11.40;99.90;;;;;;10443679;28;20219;-63
2024/02/04 09:37:00;;;;;;;8.97;6.73;;;11.30;99.90;;;;;;10367559;28;20707;-62
2024/02/04 09:42:04;;;;;;;10.88;7.45;;;11.30;99.90;;;;;;10361456;28;20193;-63
2024/02/04 09:47:12;;;;;;;12.43;10.43;;;11.30;99.90;;;;;;10369170;28;20201;-62
2024/02/04 09:52:20;;;;;;;13.82;11.10;;;11.30;99.90;;;;;;10366920;28;20294;-63
2024/02/04 09:57:24;;;;;;;14.48;10.75;;;11.30;99.90;;;;;;10361492;28;20205;-63
2024/02/04 10:02:30;;;;;;;12.20;10.75;;;11.30;99.90;;;;;;10364762;28;20256;-63
2024/02/04 10:07:34;;;;;;;13.63;10.00;;;11.40;99.90;;;;;;10368007;28;20235;-63
2024/02/04 10:12:40;;;;;;;9.75;8.60;;;11.40;99.90;;;;;;10361299;28;20256;-62
2024/02/04 10:17:46;;;;;;;12.88;9.15;;;11.50;99.90;;;;;;10363491;28;20201;-63
2024/02/04 10:22:50;;;;;;;11.13;10.02;;;11.50;99.90;;;;;;10365143;28;20750;-63
2024/02/04 10:27:54;;;;;;;10.98;9.57;;;11.50;99.90;;;;;;10372103;28;20672;-63
2024/02/04 10:33:00;;;;;;;11.57;8.82;;;11.50;99.90;;;;;;10364100;28;20311;-63
2024/02/04 10:38:04;;;;;;;9.95;8.50;;;11.50;99.90;;;;;;10366096;28;20267;-63
2024/02/04 10:43:09;;;;;;;10.75;9.63;;;11.50;99.90;;;;;;10366614;28;20220;-63
2024/02/04 10:48:20;;;;;;;11.38;9.48;;;11.50;99.90;;;;;;10364808;28;20278;-63
2024/02/04 10:53:26;;;;;;;11.30;9.00;;;11.50;99.90;;;;;;10367608;28;20283;-63
2024/02/04 10:58:30;;;;;;;10.32;9.25;;;11.50;99.90;;;;;;10366853;28;20205;-63
2024/02/04 11:03:36;;;;;;;12.35;11.15;;;11.50;99.90;;;;;;10369036;28;20587;-63
2024/02/04 11:08:40;;;;;;;10.30;9.27;;;11.70;99.90;;;;;;10365256;28;20660;-63
2024/02/04 11:13:47;;;;;;;9.07;8.18;;;11.80;99.90;;;;;;10355193;28;20252;-63
2024/02/04 11:19:09;;;;;;;11.05;7.97;;;11.90;99.90;;;;;;10356201;28;20664;-62
2024/02/04 11:24:29;;;;;;;8.13;6.55;;;11.90;99.90;;;;;;10364098;28;20225;-63
2024/02/04 11:29:34;;;;;;;7.00;5.03;;;12.00;99.90;;;;;;10364420;28;20206;-64
2024/02/04 11:34:39;;;;;;;5.95;5.40;;;12.00;99.90;;;;;;10373572;28;20228;-63
2024/02/04 11:39:49;;;;;;;9.38;8.32;;;11.90;99.90;;;;;;10374923;28;20668;-63
2024/02/04 11:45:08;;;;;;;10.60;8.30;;;11.80;99.90;;;;;;10374735;28;20225;-63
2024/02/04 11:50:13;;;;;;;9.13;8.23;;;11.80;99.90;;;;;;10372136;28;20205;-62
2024/02/04 11:55:17;;;;;;;7.25;6.55;;;11.90;99.90;;;;;;10376501;28;20758;-63
2024/02/04 12:00:21;;;;;;;6.18;5.40;;;11.90;99.90;;;;;;10373374;28;20228;-64
2024/02/04 12:05:27;;;;;;;6.80;5.50;;;11.90;99.90;;;;;;10372032;28;20224;-63
2024/02/04 12:10:31;;;;;;;5.78;5.28;;;11.90;99.90;;;;;;10371676;28;20200;-62
2024/02/04 12:15:36;;;;;;;5.00;4.50;;;11.80;99.90;;;;;;10372741;28;20252;-63
2024/02/04 12:20:41;;;;;;;4.60;4.20;;;11.80;99.90;;;;;;10368816;28;20326;-63
2024/02/04 12:25:45;;;;;;;6.20;4.55;;;11.70;99.90;;;;;;10371830;28;20868;-63
2024/02/04 12:30:54;;;;;;;6.47;5.88;;;11.70;99.90;;;;;;10370424;28;20221;-65
2024/02/04 12:36:01;;;;;;;8.95;7.72;;;11.70;99.90;;;;;;10364685;28;20221;-64
2024/02/04 12:41:05;;;;;;;8.93;8.02;;;11.70;99.90;;;;;;10365987;28;20201;-63
2024/02/04 12:46:08;;;;;;;9.75;8.75;;;11.70;99.90;;;;;;10360938;28;20699;-64
2024/02/04 12:51:24;;;;;;;10.63;9.55;;;11.70;99.90;;;;;;10364070;28;20229;-64
2024/02/04 12:56:28;;;;;;;10.32;9.18;;;11.70;99.90;;;;;;10363109;28;20757;-64
2024/02/04 13:01:31;;;;;;;9.45;8.45;;;11.70;99.90;;;;;;10373345;28;20239;-64
2024/02/04 13:06:41;;;;;;;11.10;9.48;;;11.70;99.90;;;;;;10369196;28;20275;-65
2024/02/04 13:11:44;;;;;;;14.35;9.98;;;11.70;99.90;;;;;;10364012;28;20370;-65
2024/02/04 13:16:48;;;;;;;10.15;9.10;;;11.70;99.90;;;;;;10363758;28;20225;-63
2024/02/04 13:21:53;;;;;;;10.68;8.40;;;11.70;99.90;;;;;;10364621;28;20212;-66
2024/02/04 13:26:58;;;;;;;10.73;9.55;;;11.70;99.90;;;;;;10360004;28;20401;-67
2024/02/04 13:32:02;;;;;;;9.45;8.15;;;11.70;99.90;;;;;;10367421;28;20216;-67
2024/02/04 13:37:07;;;;;;;8.85;7.68;;;11.70;99.90;;;;;;10367815;28;20197;-64
2024/02/04 13:42:11;;;;;;;9.18;7.68;;;11.70;99.90;;;;;;10362690;28;21685;-65
2024/02/04 13:47:14;;;;;;;9.57;8.32;;;11.70;99.90;;;;;;10361625;28;20730;-65
2024/02/04 13:52:19;;;;;;;10.57;9.48;;;11.70;99.90;;;;;;10363169;28;20221;-65
2024/02/04 13:57:23;;;;;;;11.05;9.93;;;11.60;99.90;;;;;;10362513;28;20206;-65
2024/02/04 14:02:29;;;;;;;11.02;9.93;;;11.70;99.90;;;;;;10365407;28;20217;-65
2024/02/04 14:07:34;;;;;;;13.93;11.40;;;11.70;99.90;;;;;;10366244;28;20227;-65
2024/02/04 14:12:39;;;;;;;12.32;11.10;;;11.70;99.90;;;;;;10369312;28;20228;-65
2024/02/04 14:17:43;;;;;;;12.57;11.35;;;11.70;99.90;;;;;;10365085;28;20204;-65
2024/02/04 14:22:48;;;;;;;11.23;9.57;;;11.70;99.90;;;;;;10365435;28;20244;-64
2024/02/04 14:27:52;;;;;;;10.85;9.60;;;11.70;99.90;;;;;;10364587;28;20231;-65
2024/02/04 14:32:56;;;;;;;11.43;10.27;;;11.70;99.90;;;;;;10360701;28;20310;-65
2024/02/04 14:38:01;;;;;;;11.27;10.25;;;11.70;99.90;;;;;;10364310;28;20263;-65
2024/02/04 14:43:06;;;;;;;11.15;9.98;;;11.60;99.90;;;;;;10360791;28;20688;-65
2024/02/04 14:48:09;;;;;;;11.65;10.07;;;11.60;99.90;;;;;;10362218;28;20232;-66
2024/02/04 14:53:15;;;;;;;12.25;10.95;;;11.60;99.90;;;;;;10368875;28;20225;-65
2024/02/04 14:58:19;;;;;;;14.15;12.35;;;11.60;99.90;;;;;;10420799;23;20634;-62
2024/02/04 15:03:23;;;;;;;19.92;17.27;;;11.60;99.90;;;;;;10415242;28;20270;-63
2024/02/04 15:08:28;;;;;;;20.05;17.33;;;11.70;99.90;;;;;;10412494;28;20255;-63
2024/02/04 15:13:32;;;;;;;18.38;16.45;;;11.70;99.90;;;;;;10418315;28;20257;-62
2024/02/04 15:18:37;;;;;;;17.00;15.38;;;11.70;99.90;;;;;;10411713;28;20220;-64
2024/02/04 15:23:44;;;;;;;14.48;12.98;;;11.70;99.90;;;;;;10405018;28;20262;-65
2024/02/04 15:28:49;;;;;;;14.35;12.18;;;11.70;99.90;;;;;;10404894;28;20322;-65
2024/02/04 15:33:53;;;;;;;17.17;13.23;;;11.70;99.90;;;;;;10409985;28;20224;-65
2024/02/04 15:38:58;;;;;;;13.90;11.63;;;11.60;99.90;;;;;;10404611;28;20227;-65
2024/02/04 15:44:02;;;;;;;11.43;10.32;;;11.60;99.90;;;;;;10416951;28;20208;-66
2024/02/04 15:49:10;;;;;;;13.65;11.40;;;11.60;99.90;;;;;;10412613;28;20571;-64
2024/02/04 15:54:16;;;;;;;17.10;11.55;;;11.60;99.90;;;;;;10412088;28;20263;-65
2024/02/04 15:59:24;;;;;;;16.30;11.85;;;11.60;99.90;;;;;;10409627;28;20209;-64
2024/02/04 16:04:28;;;;;;;15.57;10.40;;;11.60;99.90;;;;;;10405740;28;20611;-64
2024/02/04 16:09:34;;;;;;;14.85;11.02;;;11.60;99.90;;;;;;10404367;28;20617;-65
2024/02/04 16:14:42;;;;;;;16.90;11.68;;;11.60;99.90;;;;;;10410331;28;20282;-63
2024/02/04 16:19:46;;;;;;;12.25;10.25;;;11.60;99.90;;;;;;10401129;28;20207;-66
2024/02/04 16:24:51;;;;;;;11.38;10.07;;;11.60;99.90;;;;;;10401832;28;20220;-64
2024/02/04 16:29:55;;;;;;;14.38;10.85;;;11.60;99.90;;;;;;10397800;28;20231;-65
2024/02/04 16:34:58;;;;;;;12.23;10.55;;;11.70;99.90;;;;;;10405490;28;20273;-65
2024/02/04 16:40:04;;;;;;;10.35;9.18;;;11.60;99.90;;;;;;10419427;28;20196;-65
2024/02/04 16:45:09;;;;;;;12.48;10.63;;;11.70;99.90;;;;;;10406991;28;20627;-64
2024/02/04 16:50:13;;;;;;;11.65;10.43;;;11.70;99.90;;;;;;10405972;28;20200;-65
2024/02/04 16:55:19;;;;;;;13.65;11.48;;;11.70;99.90;;;;;;10413169;28;20251;-65
2024/02/04 17:00:24;;;;;;;12.70;10.20;;;11.60;99.90;;;;;;10413550;28;20275;-65
2024/02/04 17:05:29;;;;;;;13.43;12.13;;;11.60;99.90;;;;;;10410062;28;20523;-65
2024/02/04 17:10:51;;;;;;;12.13;10.55;;;11.70;99.90;;;;;;10406157;28;20200;-64
2024/02/04 17:15:56;;;;;;;12.23;10.05;;;11.80;99.90;;;;;;10402369;28;20248;-65
2024/02/04 17:21:02;;;;;;;11.60;9.68;;;11.70;99.90;;;;;;10399351;28;20224;-66
2024/02/04 17:26:08;;;;;;;13.00;9.63;;;11.70;99.90;;;;;;10403367;28;20247;-65
2024/02/04 17:31:11;;;;;;;10.07;9.05;;;11.70;99.90;;;;;;10403791;28;20216;-67
2024/02/04 17:36:15;;;;;;;12.10;9.20;;;11.70;99.90;;;;;;10403507;28;20248;-68
2024/02/04 17:41:20;;;;;;;10.25;9.20;;;11.70;99.90;;;;;;10405067;28;20283;-65
2024/02/04 17:46:23;;;;;;;9.30;8.38;;;11.60;99.90;;;;;;10405533;28;20232;-66
2024/02/04 17:51:27;;;;;;;10.80;8.93;;;11.60;99.90;;;;;;10407250;28;20200;-63
2024/02/04 17:56:36;;;;;;;9.85;7.10;;;11.60;99.90;;;;;;10401242;28;20253;-66
2024/02/04 18:01:40;;;;;;;11.75;7.22;;;11.60;99.90;;;;;;10405306;28;20663;-67
2024/02/04 18:06:44;;;;;;;7.65;6.95;;;11.60;99.90;;;;;;10403224;28;20252;-67
2024/02/04 18:11:48;;;;;;;8.07;7.28;;;11.60;99.90;;;;;;10403153;28;20200;-67
2024/02/04 18:16:52;;;;;;;9.13;7.60;;;11.60;99.90;;;;;;10403295;28;20223;-66
2024/02/04 18:21:56;;;;;;;10.02;7.53;;;11.60;99.90;;;;;;10411609;28;20200;-65
2024/02/04 18:27:02;;;;;;;11.40;6.97;;;11.60;99.90;;;;;;10412264;28;20334;-66
2024/02/04 18:32:06;;;;;;;10.90;7.07;;;11.60;99.90;;;;;;10411211;28;20567;-69
2024/02/04 18:37:09;;;;;;;12.60;7.75;;;11.50;99.90;;;;;;10402461;28;20224;-64
2024/02/04 18:42:14;;;;;;;12.50;7.13;;;11.50;99.90;;;;;;10432541;28;20258;-64
2024/02/04 18:47:18;;;;;;;12.13;7.40;;;11.50;99.90;;;;;;10424152;28;20290;-63
2024/02/04 18:52:24;;;;;;;12.05;7.70;;;11.50;99.90;;;;;;10412351;28;20262;-64
2024/02/04 18:57:29;;;;;;;11.30;7.57;;;11.50;99.90;;;;;;10411284;28;20254;-65
2024/02/04 19:02:32;;;;;;;11.27;7.75;;;11.50;99.90;;;;;;10405731;28;20200;-68
2024/02/04 19:07:36;;;;;;;11.07;7.82;;;11.50;99.90;;;;;;10402424;28;20234;-66
2024/02/04 19:12:41;;;;;;;12.32;7.82;;;11.50;99.90;;;;;;10407418;28;20196;-65
2024/02/04 19:17:46;;;;;;;10.32;7.85;;;11.40;99.90;;;;;;10407905;28;20273;-65
2024/02/04 19:22:50;;;;;;;11.68;9.02;;;11.40;99.90;;;;;;10410315;28;20230;-63
2024/02/04 19:27:57;;;;;;;10.98;9.82;;;11.40;99.90;;;;;;10404433;28;20274;-62
2024/02/04 19:33:01;;;;;;;10.77;9.68;;;11.40;99.90;;;;;;10405119;28;20205;-63
2024/02/04 19:38:05;;;;;;;14.82;11.90;;;11.40;99.90;;;;;;10404702;28;20314;-61
2024/02/04 19:43:10;;;;;;;13.25;11.63;;;11.40;99.90;;;;;;10402247;28;20267;-63
2024/02/04 19:48:14;;;;;;;14.93;13.43;;;11.40;99.90;;;;;;10403799;28;20247;-67
2024/02/04 19:53:18;;;;;;;14.73;13.27;;;11.40;99.90;;;;;;10404848;28;20254;-66
2024/02/04 19:58:23;;;;;;;12.90;11.45;;;11.40;99.90;;;;;;10406109;28;20653;-65
2024/02/04 20:03:27;;;;;;;12.60;11.30;;;11.30;99.90;;;;;;10401914;28;20201;-65
2024/02/04 20:08:30;;;;;;;11.45;10.35;;;11.30;99.90;;;;;;10409146;28;20244;-66
2024/02/04 20:13:41;;;;;;;11.20;10.05;;;11.30;99.90;;;;;;10406328;28;20224;-64
2024/02/04 20:18:47;;;;;;;10.70;9.70;;;11.30;99.90;;;;;;10404556;28;20243;-64
2024/02/04 20:23:50;;;;;;;9.65;8.50;;;11.30;99.90;;;;;;10405809;28;20200;-64
2024/02/04 20:28:55;;;;;;;9.40;8.50;;;11.30;99.90;;;;;;10406116;28;20254;-64
2024/02/04 20:33:59;;;;;;;7.22;6.50;;;11.30;99.90;;;;;;10408842;28;20282;-65
2024/02/04 20:39:04;;;;;;;7.78;6.65;;;11.30;99.90;;;;;;10405311;28;20200;-64
2024/02/04 20:44:08;;;;;;;6.00;5.47;;;11.30;99.90;;;;;;10410926;28;20702;-66
2024/02/04 20:49:12;;;;;;;8.48;5.93;;;11.30;99.90;;;;;;10400253;28;20758;-65
2024/02/04 20:59:24;;;;;;;7.63;6.18;;;11.30;99.90;;;;;;10360084;28;20236;-62
2024/02/04 21:04:28;;;;;;;6.43;5.65;;;11.30;99.90;;;;;;10378806;28;20201;-62
2024/02/04 21:09:32;;;;;;;8.27;6.70;;;11.40;99.90;;;;;;10413523;28;20669;-61
2024/02/04 21:14:39;;;;;;;9.00;7.70;;;11.40;99.90;;;;;;10413840;28;20627;-60
2024/02/04 21:19:44;;;;;;;10.50;7.80;;;11.40;99.90;;;;;;10404509;28;20250;-64
2024/02/04 21:24:50;;;;;;;9.68;8.57;;;11.40;99.90;;;;;;10410537;28;20715;-65
2024/02/04 21:29:55;;;;;;;13.02;9.10;;;11.50;99.90;;;;;;10410886;28;20196;-61
2024/02/04 21:34:58;;;;;;;9.80;8.38;;;11.50;99.90;;;;;;10410556;28;20227;-61
2024/02/04 21:40:02;;;;;;;11.80;8.48;;;11.50;99.90;;;;;;10420569;28;20201;-59
2024/02/04 21:45:08;;;;;;;10.50;8.93;;;11.50;99.90;;;;;;10413208;28;20217;-63
2024/02/04 21:50:12;;;;;;;11.80;8.63;;;11.50;99.90;;;;;;10412460;28;20200;-61
2024/02/04 21:55:16;;;;;;;11.25;8.23;;;11.50;99.90;;;;;;10415737;28;20228;-63
2024/02/04 22:00:21;;;;;;;11.90;8.07;;;11.50;99.90;;;;;;10417336;28;20266;-63
2024/02/04 22:05:28;;;;;;;9.15;7.70;;;11.50;99.90;;;;;;10404936;28;20267;-61
2024/02/04 22:10:33;;;;;;;8.48;7.53;;;11.60;99.90;;;;;;10400791;28;20227;-59
2024/02/04 22:15:38;;;;;;;9.70;7.80;;;11.60;99.90;;;;;;10402680;28;20588;-61
2024/02/04 22:20:41;;;;;;;11.52;8.95;;;11.60;99.90;;;;;;10407771;28;20208;-61
2024/02/04 22:25:46;;;;;;;14.38;9.15;;;11.60;99.90;;;;;;10408508;28;20220;-61
2024/02/04 22:30:51;;;;;;;11.40;7.88;;;11.60;99.90;;;;;;10403854;28;20197;-60
2024/02/04 22:35:55;;;;;;;10.85;8.02;;;11.60;99.90;;;;;;10404435;28;20243;-60
2024/02/04 22:40:59;;;;;;;12.15;7.50;;;11.60;99.90;;;;;;10397943;28;20219;-64
2024/02/04 22:46:04;;;;;;;12.25;7.38;;;11.60;99.90;;;;;;10397164;28;20617;-60
2024/02/04 22:51:08;;;;;;;9.93;7.03;;;11.60;99.90;;;;;;10398968;28;20282;-63
2024/02/04 22:56:12;;;;;;;11.75;8.20;;;11.70;99.90;;;;;;10399710;28;20255;-61
2024/02/04 23:01:17;;;;;;;14.10;7.80;;;11.70;99.90;;;;;;10390466;28;20310;-62
2024/02/04 23:06:21;;;;;;;11.63;7.65;;;11.70;99.90;;;;;;10400274;28;20266;-64
2024/02/04 23:11:25;;;;;;;11.68;7.40;;;11.70;99.90;;;;;;10398558;28;20200;-60
2024/02/04 23:16:30;;;;;;;13.38;7.82;;;11.70;99.90;;;;;;10392773;28;20315;-61
2024/02/04 23:21:34;;;;;;;9.70;7.40;;;11.70;99.90;;;;;;10392867;28;20200;-62
2024/02/04 23:26:38;;;;;;;13.20;7.75;;;11.70;99.90;;;;;;10400535;28;20297;-63
2024/02/04 23:31:43;;;;;;;9.65;7.07;;;11.70;99.90;;;;;;10402467;28;20702;-64
2024/02/04 23:36:47;;;;;;;14.82;7.75;;;11.80;99.90;;;;;;10403239;28;20759;-63
2024/02/04 23:41:50;;;;;;;11.25;7.43;;;11.80;99.90;;;;;;10400525;28;20786;-62
2024/02/04 23:46:55;;;;;;;13.77;7.43;;;11.80;99.90;;;;;;10403324;28;20255;-62
2024/02/04 23:51:59;;;;;;;11.20;7.82;;;11.80;99.90;;;;;;10410678;28;20327;-60
2024/02/04 23:57:03;;;;;;;13.65;8.93;;;11.80;99.90;;;;;;10405527;28;20260;-61
